Bradford Regional Airport
KBFD : now visible

Airfield :











YOU CAN JOIN US ON...

 
LOGIN :

Register | Disclaimer

   EN    FR    IT 

 









Legend :    VFR   Marginal VFR   IFR   Intensive IFR   Very Intensive IFR
Visi :
Ceiling :
>= 8 km
>= 3000ft
5 to 8 km
1000 to 3000 ft
1500m to 5 km
500 to 1000 ft
800 to 1500m
200 to 500 ft
< 800m
< 200 ft
Symbols :   Thunderstorms  Fog  Heavy snow  Heavy precipitations  Wind > 20 kt







- Airport Elevation : 2143 ft
- IATA code : BFD


KBFD - Bradford Regional

CURRENT METAR :
  • 201953Z AUTO 20003KT 10SM CLR 24/09 A3022 RMK AO2 SLP227 T02440094

EXPIRED METARs :
  • 201853Z AUTO 00000KT 10SM CLR 24/07 A3023 RMK AO2 SLP232 T02390072
  • 201753Z AUTO VRB03KT 10SM CLR 23/08 A3024 RMK AO2 SLP236 T02330078 10233 20067 58013

TAF KBFD
Valid from the 20 at 18:00 until the 21 at 18:00 UTC


201810Z 2018/2118 32007KT P6SM SKC
FM210000 00000KT P6SM FEW250
FM210800 00000KT 3/4SM BR BKN001
FM211300 21004KT P6SM BKN050
No reported NOTAMs for that airfield.



MET'MAP, your aeronautical weather chart ! - Copyright ORBIFLY December 2007 - Disclaimer

ORBIFLY MET'MAP TEAM :

Programming & Development : Alexandra Zaïnal
Concept & Development : Baudouin d'Aumeries
Co-Development & Prog : Marc-Olivier Méhu
Technical & hardware support : Manuel Goepfert

Contact : metmap@orbifly.com




SOURCES & CREDITS :

   NOAA       Earth
Advisory